sensor_id;sensor_type;location;lat;lon;timestamp;pressure;altitude;pressure_sealevel;temperature;humidity
26112;BME280;13829;48.990;8.346;2023-03-21T00:00:04;100751.66;;;10.84;90.58
26112;BME280;13829;48.990;8.346;2023-03-21T00:02:33;100742.84;;;10.79;90.91
26112;BME280;13829;48.990;8.346;2023-03-21T00:05:00;100748.03;;;10.71;91.69
26112;BME280;13829;48.990;8.346;2023-03-21T00:07:27;100740.13;;;10.70;91.65
26112;BME280;13829;48.990;8.346;2023-03-21T00:09:53;100745.41;;;10.70;91.34
26112;BME280;13829;48.990;8.346;2023-03-21T00:12:20;100741.91;;;10.72;91.69
26112;BME280;13829;48.990;8.346;2023-03-21T00:14:47;100736.56;;;10.65;92.13
26112;BME280;13829;48.990;8.346;2023-03-21T00:17:15;100742.63;;;10.54;92.83
26112;BME280;13829;48.990;8.346;2023-03-21T00:19:43;100733.81;;;10.54;92.97
26112;BME280;13829;48.990;8.346;2023-03-21T00:22:10;100731.19;;;10.52;93.32
26112;BME280;13829;48.990;8.346;2023-03-21T00:24:38;100724.16;;;10.51;93.51
26112;BME280;13829;48.990;8.346;2023-03-21T00:27:05;100727.69;;;10.50;93.97
26112;BME280;13829;48.990;8.346;2023-03-21T00:29:33;100726.69;;;10.43;94.05
26112;BME280;13829;48.990;8.346;2023-03-21T00:32:00;100728.47;;;10.43;94.65
26112;BME280;13829;48.990;8.346;2023-03-21T00:34:26;100724.13;;;10.48;94.58
26112;BME280;13829;48.990;8.346;2023-03-21T00:36:55;100719.72;;;10.46;95.17
26112;BME280;13829;48.990;8.346;2023-03-21T00:39:22;100717.94;;;10.43;95.38
26112;BME280;13829;48.990;8.346;2023-03-21T00:41:49;100715.34;;;10.46;95.23
26112;BME280;13829;48.990;8.346;2023-03-21T00:44:15;100717.09;;;10.46;95.32
26112;BME280;13829;48.990;8.346;2023-03-21T00:46:42;100711.84;;;10.49;95.63
26112;BME280;13829;48.990;8.346;2023-03-21T00:49:09;100712.75;;;10.51;94.63
26112;BME280;13829;48.990;8.346;2023-03-21T00:51:36;100708.38;;;10.51;94.94
26112;BME280;13829;48.990;8.346;2023-03-21T00:54:05;100705.84;;;10.59;95.17
26112;BME280;13829;48.990;8.346;2023-03-21T00:56:32;100706.72;;;10.59;94.81
26112;BME280;13829;48.990;8.346;2023-03-21T00:58:59;100700.59;;;10.60;94.43
26112;BME280;13829;48.990;8.346;2023-03-21T01:01:26;100703.16;;;10.54;94.51
26112;BME280;13829;48.990;8.346;2023-03-21T01:03:57;100704.88;;;10.52;94.29
26112;BME280;13829;48.990;8.346;2023-03-21T01:06:28;100696.06;;;10.46;94.21
26112;BME280;13829;48.990;8.346;2023-03-21T01:08:55;100696.06;;;10.46;94.22
26112;BME280;13829;48.990;8.346;2023-03-21T01:11:27;100699.47;;;10.37;94.38
26112;BME280;13829;48.990;8.346;2023-03-21T01:13:54;100690.63;;;10.32;94.37
26112;BME280;13829;48.990;8.346;2023-03-21T01:16:22;100702.84;;;10.29;94.83
26112;BME280;13829;48.990;8.346;2023-03-21T01:18:49;100692.34;;;10.28;94.80
26112;BME280;13829;48.990;8.346;2023-03-21T01:21:16;100698.44;;;10.27;94.54
26112;BME280;13829;48.990;8.346;2023-03-21T01:23:44;100694.97;;;10.26;95.17
26112;BME280;13829;48.990;8.346;2023-03-21T01:26:12;100694.91;;;10.22;95.65
26112;BME280;13829;48.990;8.346;2023-03-21T01:28:43;100688.75;;;10.20;95.42
26112;BME280;13829;48.990;8.346;2023-03-21T01:31:12;100681.75;;;10.22;94.63
26112;BME280;13829;48.990;8.346;2023-03-21T01:33:40;100684.28;;;10.12;94.89
26112;BME280;13829;48.990;8.346;2023-03-21T01:36:08;100684.13;;;9.99;95.23
26112;BME280;13829;48.990;8.346;2023-03-21T01:38:39;100680.50;;;9.87;95.43
26112;BME280;13829;48.990;8.346;2023-03-21T01:41:09;100690.91;;;9.79;95.18
26112;BME280;13829;48.990;8.346;2023-03-21T01:43:43;100685.63;;;9.78;95.69
26112;BME280;13829;48.990;8.346;2023-03-21T01:46:33;100684.63;;;9.70;96.22
26112;BME280;13829;48.990;8.346;2023-03-21T01:49:09;100682.00;;;9.70;96.24
26112;BME280;13829;48.990;8.346;2023-03-21T01:51:41;100684.53;;;9.60;96.65
26112;BME280;13829;48.990;8.346;2023-03-21T01:54:16;100677.53;;;9.62;97.27
26112;BME280;13829;48.990;8.346;2023-03-21T01:56:45;100672.28;;;9.61;97.72
26112;BME280;13829;48.990;8.346;2023-03-21T01:59:19;100669.63;;;9.58;97.75
26112;BME280;13829;48.990;8.346;2023-03-21T02:01:49;100660.00;;;9.60;98.51
26112;BME280;13829;48.990;8.346;2023-03-21T02:04:17;100663.44;;;9.54;98.60
26112;BME280;13829;48.990;8.346;2023-03-21T02:06:57;100652.09;;;9.57;98.42
26112;BME280;13829;48.990;8.346;2023-03-21T02:09:31;100652.97;;;9.57;98.17
26112;BME280;13829;48.990;8.346;2023-03-21T02:12:02;100660.81;;;9.53;98.58
26112;BME280;13829;48.990;8.346;2023-03-21T02:14:33;100659.78;;;9.43;98.88
26112;BME280;13829;48.990;8.346;2023-03-21T02:17:11;100656.97;;;9.30;99.76
26112;BME280;13829;48.990;8.346;2023-03-21T02:20:21;100650.78;;;9.25;100.00
26112;BME280;13829;48.990;8.346;2023-03-21T02:23:18;100655.91;;;9.16;100.00
26112;BME280;13829;48.990;8.346;2023-03-21T02:26:50;100649.75;;;9.14;99.90
26112;BME280;13829;48.990;8.346;2023-03-21T02:29:44;100640.81;;;9.03;99.36
26112;BME280;13829;48.990;8.346;2023-03-21T02:32:27;100637.31;;;9.01;99.18
26112;BME280;13829;48.990;8.346;2023-03-21T02:35:24;100643.16;;;8.84;100.00
26112;BME280;13829;48.990;8.346;2023-03-21T02:38:01;100640.50;;;8.82;100.00
26112;BME280;13829;48.990;8.346;2023-03-21T02:40:35;100641.25;;;8.74;99.89
26112;BME280;13829;48.990;8.346;2023-03-21T02:43:12;100649.06;;;8.71;100.00
26112;BME280;13829;48.990;8.346;2023-03-21T02:45:49;100637.75;;;8.72;100.00
26112;BME280;13829;48.990;8.346;2023-03-21T02:48:24;100635.03;;;8.69;100.00
26112;BME280;13829;48.990;8.346;2023-03-21T02:50:59;100630.72;;;8.71;100.00
26112;BME280;13829;48.990;8.346;2023-03-21T02:53:33;100635.97;;;8.71;100.00
26112;BME280;13829;48.990;8.346;2023-03-21T02:56:04;100637.75;;;8.72;100.00
26112;BME280;13829;48.990;8.346;2023-03-21T02:58:37;100631.88;;;8.87;100.00
26112;BME280;13829;48.990;8.346;2023-03-21T03:01:05;100637.97;;;8.86;100.00
26112;BME280;13829;48.990;8.346;2023-03-21T03:03:33;100636.97;;;8.79;100.00
26112;BME280;13829;48.990;8.346;2023-03-21T03:06:14;100634.34;;;8.79;100.00
26112;BME280;13829;48.990;8.346;2023-03-21T03:09:05;100628.19;;;8.77;100.00
26112;BME280;13829;48.990;8.346;2023-03-21T03:11:36;100630.88;;;8.80;100.00
26112;BME280;13829;48.990;8.346;2023-03-21T03:14:37;100627.47;;;8.86;100.00
26112;BME280;13829;48.990;8.346;2023-03-21T03:17:19;100620.38;;;8.81;100.00
26112;BME280;13829;48.990;8.346;2023-03-21T03:22:54;100619.41;;;8.73;100.00
26112;BME280;13829;48.990;8.346;2023-03-21T03:25:30;100622.03;;;8.75;100.00
26112;BME280;13829;48.990;8.346;2023-03-21T03:28:05;100619.41;;;8.75;100.00
26112;BME280;13829;48.990;8.346;2023-03-21T03:30:36;100617.53;;;8.68;100.00
26112;BME280;13829;48.990;8.346;2023-03-21T03:33:07;100617.50;;;8.64;100.00
26112;BME280;13829;48.990;8.346;2023-03-21T03:35:36;100615.00;;;8.71;100.00
26112;BME280;13829;48.990;8.346;2023-03-21T03:38:06;100613.19;;;8.67;100.00
26112;BME280;13829;48.990;8.346;2023-03-21T03:40:40;100612.25;;;8.63;100.00
26112;BME280;13829;48.990;8.346;2023-03-21T03:43:14;100612.16;;;8.58;100.00
26112;BME280;13829;48.990;8.346;2023-03-21T03:45:47;100604.41;;;8.64;100.00
26112;BME280;13829;48.990;8.346;2023-03-21T03:48:23;100611.34;;;8.62;100.00
26112;BME280;13829;48.990;8.346;2023-03-21T03:50:56;100611.34;;;8.62;100.00
26112;BME280;13829;48.990;8.346;2023-03-21T03:53:33;100611.31;;;8.59;100.00
26112;BME280;13829;48.990;8.346;2023-03-21T03:56:07;100612.16;;;8.58;100.00
26112;BME280;13829;48.990;8.346;2023-03-21T03:58:37;100617.41;;;8.58;100.00
26112;BME280;13829;48.990;8.346;2023-03-21T04:01:06;100616.47;;;8.56;100.00
26112;BME280;13829;48.990;8.346;2023-03-21T04:03:35;100617.25;;;8.49;100.00
26112;BME280;13829;48.990;8.346;2023-03-21T04:06:03;100617.19;;;8.46;100.00
26112;BME280;13829;48.990;8.346;2023-03-21T04:08:31;100623.38;;;8.51;100.00
26112;BME280;13829;48.990;8.346;2023-03-21T04:10:57;100618.97;;;8.47;100.00
26112;BME280;13829;48.990;8.346;2023-03-21T04:13:26;100620.78;;;8.51;100.00
26112;BME280;13829;48.990;8.346;2023-03-21T04:15:53;100623.38;;;8.51;100.00
26112;BME280;13829;48.990;8.346;2023-03-21T04:18:21;100619.06;;;8.53;100.00
26112;BME280;13829;48.990;8.346;2023-03-21T04:20:48;100619.09;;;8.55;100.00
26112;BME280;13829;48.990;8.346;2023-03-21T04:23:16;100617.38;;;8.55;100.00
26112;BME280;13829;48.990;8.346;2023-03-21T04:25:45;100608.59;;;8.55;100.00
26112;BME280;13829;48.990;8.346;2023-03-21T04:28:12;100604.25;;;8.55;100.00
26112;BME280;13829;48.990;8.346;2023-03-21T04:30:40;100615.69;;;8.60;100.00
26112;BME280;13829;48.990;8.346;2023-03-21T04:33:07;100609.66;;;8.64;100.00
26112;BME280;13829;48.990;8.346;2023-03-21T04:35:34;100614.88;;;8.64;100.00
26112;BME280;13829;48.990;8.346;2023-03-21T04:38:01;100614.06;;;8.69;100.00
26112;BME280;13829;48.990;8.346;2023-03-21T04:40:28;100614.06;;;8.67;100.00
26112;BME280;13829;48.990;8.346;2023-03-21T04:42:55;100612.38;;;8.71;100.00
26112;BME280;13829;48.990;8.346;2023-03-21T04:45:22;100614.16;;;8.73;100.00
26112;BME280;13829;48.990;8.346;2023-03-21T04:47:50;100603.69;;;8.76;100.00
26112;BME280;13829;48.990;8.346;2023-03-21T04:50:17;100609.78;;;8.74;100.00
26112;BME280;13829;48.990;8.346;2023-03-21T04:52:44;100609.00;;;8.78;100.00
26112;BME280;13829;48.990;8.346;2023-03-21T04:55:11;100611.63;;;8.78;100.00
26112;BME280;13829;48.990;8.346;2023-03-21T04:57:39;100604.50;;;8.71;100.00
26112;BME280;13829;48.990;8.346;2023-03-21T05:00:08;100607.03;;;8.64;100.00
26112;BME280;13829;48.990;8.346;2023-03-21T05:02:36;100607.00;;;8.61;100.00
26112;BME280;13829;48.990;8.346;2023-03-21T05:05:06;100605.03;;;8.51;100.00
26112;BME280;13829;48.990;8.346;2023-03-21T05:07:36;100601.31;;;8.40;100.00
26112;BME280;13829;48.990;8.346;2023-03-21T05:10:05;100606.41;;;8.29;100.00
26112;BME280;13829;48.990;8.346;2023-03-21T05:12:33;100600.00;;;8.13;100.00
26112;BME280;13829;48.990;8.346;2023-03-21T05:15:00;100606.03;;;8.09;100.00
26112;BME280;13829;48.990;8.346;2023-03-21T05:17:27;100604.13;;;8.00;100.00
26112;BME280;13829;48.990;8.346;2023-03-21T05:19:54;100598.88;;;7.98;100.00
26112;BME280;13829;48.990;8.346;2023-03-21T05:22:24;100605.81;;;7.98;100.00
26112;BME280;13829;48.990;8.346;2023-03-21T05:24:52;100604.03;;;7.95;100.00
26112;BME280;13829;48.990;8.346;2023-03-21T05:27:21;100596.97;;;7.91;100.00
26112;BME280;13829;48.990;8.346;2023-03-21T05:30:04;100599.69;;;7.94;100.00
26112;BME280;13829;48.990;8.346;2023-03-21T05:32:31;100603.19;;;7.96;100.00
26112;BME280;13829;48.990;8.346;2023-03-21T05:34:58;100596.13;;;7.92;100.00
26112;BME280;13829;48.990;8.346;2023-03-21T05:37:27;100598.66;;;7.88;100.00
26112;BME280;13829;48.990;8.346;2023-03-21T05:39:55;100593.28;;;7.81;100.00
26112;BME280;13829;48.990;8.346;2023-03-21T05:42:22;100601.97;;;7.79;100.00
26112;BME280;13829;48.990;8.346;2023-03-21T05:44:50;100606.25;;;7.74;100.00
26112;BME280;13829;48.990;8.346;2023-03-21T05:47:18;100601.09;;;7.78;100.00
26112;BME280;13829;48.990;8.346;2023-03-21T05:49:45;100608.94;;;7.77;100.00
26112;BME280;13829;48.990;8.346;2023-03-21T05:52:12;100614.88;;;7.70;100.00
26112;BME280;13829;48.990;8.346;2023-03-21T05:54:41;100611.59;;;7.80;100.00
26112;BME280;13829;48.990;8.346;2023-03-21T05:57:08;100608.25;;;7.87;100.00
26112;BME280;13829;48.990;8.346;2023-03-21T05:59:36;100618.78;;;7.90;100.00
26112;BME280;13829;48.990;8.346;2023-03-21T06:02:03;100612.97;;;8.07;100.00
26112;BME280;13829;48.990;8.346;2023-03-21T06:04:30;100614.75;;;8.08;100.00
26112;BME280;13829;48.990;8.346;2023-03-21T06:06:57;100613.91;;;8.09;100.00
26112;BME280;13829;48.990;8.346;2023-03-21T06:09:24;100615.72;;;8.13;100.00
26112;BME280;13829;48.990;8.346;2023-03-21T06:11:55;100619.25;;;8.15;100.00
26112;BME280;13829;48.990;8.346;2023-03-21T06:14:23;100623.78;;;8.25;100.00
26112;BME280;13829;48.990;8.346;2023-03-21T06:16:50;100619.63;;;8.35;100.00
26112;BME280;13829;48.990;8.346;2023-03-21T06:19:19;100619.81;;;8.46;100.00
26112;BME280;13829;48.990;8.346;2023-03-21T06:21:46;100620.28;;;8.74;100.00
26112;BME280;13829;48.990;8.346;2023-03-21T06:24:14;100625.59;;;8.77;100.00
26112;BME280;13829;48.990;8.346;2023-03-21T06:26:42;100616.34;;;9.02;100.00
26112;BME280;13829;48.990;8.346;2023-03-21T06:29:10;100621.06;;;9.26;100.00
26112;BME280;13829;48.990;8.346;2023-03-21T06:31:37;100616.13;;;9.51;100.00
26112;BME280;13829;48.990;8.346;2023-03-21T06:34:04;100620.78;;;9.74;98.98
26112;BME280;13829;48.990;8.346;2023-03-21T06:36:32;100621.84;;;9.91;96.68
26112;BME280;13829;48.990;8.346;2023-03-21T06:38:59;100624.47;;;9.90;96.70
26112;BME280;13829;48.990;8.346;2023-03-21T06:41:26;100615.91;;;10.09;95.95
26112;BME280;13829;48.990;8.346;2023-03-21T06:43:53;100621.34;;;10.26;95.35
26112;BME280;13829;48.990;8.346;2023-03-21T06:46:21;100612.81;;;10.49;94.96
26112;BME280;13829;48.990;8.346;2023-03-21T06:48:48;100617.34;;;10.66;94.12
26112;BME280;13829;48.990;8.346;2023-03-21T06:51:15;100621.03;;;10.89;91.35
26112;BME280;13829;48.990;8.346;2023-03-21T06:53:42;100612.53;;;11.34;89.11
26112;BME280;13829;48.990;8.346;2023-03-21T06:56:10;100613.59;;;11.73;86.05
26112;BME280;13829;48.990;8.346;2023-03-21T06:58:38;100622.34;;;11.66;84.54
26112;BME280;13829;48.990;8.346;2023-03-21T07:01:06;100616.22;;;11.73;85.26
26112;BME280;13829;48.990;8.346;2023-03-21T07:03:34;100621.38;;;11.51;85.53
26112;BME280;13829;48.990;8.346;2023-03-21T07:06:08;100624.97;;;11.69;86.67
26112;BME280;13829;48.990;8.346;2023-03-21T07:08:36;100603.19;;;12.16;86.04
26112;BME280;13829;48.990;8.346;2023-03-21T07:11:04;100603.16;;;13.08;79.17
26112;BME280;13829;48.990;8.346;2023-03-21T07:13:32;100602.88;;;13.86;74.01
26112;BME280;13829;48.990;8.346;2023-03-21T07:15:59;100596.44;;;14.31;71.08
26112;BME280;13829;48.990;8.346;2023-03-21T07:18:26;100601.94;;;15.10;66.51
26112;BME280;13829;48.990;8.346;2023-03-21T07:20:54;100589.66;;;15.78;61.29
26112;BME280;13829;48.990;8.346;2023-03-21T07:23:23;100585.88;;;15.96;59.60
26112;BME280;13829;48.990;8.346;2023-03-21T07:25:52;100585.38;;;15.68;59.18
26112;BME280;13829;48.990;8.346;2023-03-21T07:28:20;100586.69;;;15.31;60.24
26112;BME280;13829;48.990;8.346;2023-03-21T07:30:53;100592.53;;;14.80;62.57
26112;BME280;13829;48.990;8.346;2023-03-21T07:33:20;100587.44;;;14.57;65.08
26112;BME280;13829;48.990;8.346;2023-03-21T07:35:48;100583.16;;;14.37;65.45
26112;BME280;13829;48.990;8.346;2023-03-21T07:38:16;100589.47;;;14.21;68.39
26112;BME280;13829;48.990;8.346;2023-03-21T07:40:44;100587.09;;;13.76;68.24
26112;BME280;13829;48.990;8.346;2023-03-21T07:43:11;100589.78;;;13.69;71.64
26112;BME280;13829;48.990;8.346;2023-03-21T07:45:38;100598.56;;;13.73;70.69
26112;BME280;13829;48.990;8.346;2023-03-21T07:48:07;100583.53;;;13.77;69.70
26112;BME280;13829;48.990;8.346;2023-03-21T07:50:34;100584.97;;;14.32;67.56
26112;BME280;13829;48.990;8.346;2023-03-21T07:53:01;100593.97;;;15.13;65.05
26112;BME280;13829;48.990;8.346;2023-03-21T07:55:30;100591.38;;;15.80;62.44
26112;BME280;13829;48.990;8.346;2023-03-21T07:57:59;100589.03;;;16.24;60.52
26112;BME280;13829;48.990;8.346;2023-03-21T08:00:27;100598.31;;;16.53;58.67
26112;BME280;13829;48.990;8.346;2023-03-21T08:02:56;100590.25;;;16.59;58.04
26112;BME280;13829;48.990;8.346;2023-03-21T08:05:27;100589.09;;;16.73;58.41
26112;BME280;13829;48.990;8.346;2023-03-21T08:07:55;100600.59;;;17.23;55.70
26112;BME280;13829;48.990;8.346;2023-03-21T08:10:23;100598.97;;;16.66;57.03
26112;BME280;13829;48.990;8.346;2023-03-21T08:12:51;100593.75;;;16.04;57.90
26112;BME280;13829;48.990;8.346;2023-03-21T08:15:19;100599.78;;;16.13;57.78
26112;BME280;13829;48.990;8.346;2023-03-21T08:17:46;100599.94;;;16.04;58.44
26112;BME280;13829;48.990;8.346;2023-03-21T08:20:16;100601.97;;;15.80;58.63
26112;BME280;13829;48.990;8.346;2023-03-21T08:22:46;100602.31;;;15.56;60.90
26112;BME280;13829;48.990;8.346;2023-03-21T08:25:16;100605.28;;;15.26;63.12
26112;BME280;13829;48.990;8.346;2023-03-21T08:27:45;100595.81;;;15.05;62.65
26112;BME280;13829;48.990;8.346;2023-03-21T08:30:17;100595.94;;;14.93;64.08
26112;BME280;13829;48.990;8.346;2023-03-21T08:32:45;100597.91;;;14.69;65.80
26112;BME280;13829;48.990;8.346;2023-03-21T08:35:14;100593.56;;;14.59;66.73
26112;BME280;13829;48.990;8.346;2023-03-21T08:37:42;100594.41;;;14.64;65.63
26112;BME280;13829;48.990;8.346;2023-03-21T08:40:13;100594.19;;;14.92;64.21
26112;BME280;13829;48.990;8.346;2023-03-21T08:42:42;100600.22;;;15.08;63.62
26112;BME280;13829;48.990;8.346;2023-03-21T08:45:10;100597.59;;;15.06;64.54
26112;BME280;13829;48.990;8.346;2023-03-21T08:47:39;100601.06;;;15.11;65.10
26112;BME280;13829;48.990;8.346;2023-03-21T08:50:11;100599.38;;;15.04;64.62
26112;BME280;13829;48.990;8.346;2023-03-21T08:52:39;100591.41;;;15.04;62.30
26112;BME280;13829;48.990;8.346;2023-03-21T08:55:07;100595.72;;;15.14;64.23
26112;BME280;13829;48.990;8.346;2023-03-21T08:57:34;100589.78;;;14.89;64.16
26112;BME280;13829;48.990;8.346;2023-03-21T09:00:02;100590.66;;;14.93;64.80
26112;BME280;13829;48.990;8.346;2023-03-21T09:02:34;100592.38;;;14.97;64.93
26112;BME280;13829;48.990;8.346;2023-03-21T09:05:02;100597.88;;;14.75;64.36
26112;BME280;13829;48.990;8.346;2023-03-21T09:07:30;100594.38;;;14.70;64.83
26112;BME280;13829;48.990;8.346;2023-03-21T09:09:59;100591.78;;;14.62;64.29
26112;BME280;13829;48.990;8.346;2023-03-21T09:12:26;100588.25;;;14.60;64.94
26112;BME280;13829;48.990;8.346;2023-03-21T09:14:53;100589.09;;;14.70;63.99
26112;BME280;13829;48.990;8.346;2023-03-21T09:17:20;100587.34;;;14.63;64.92
26112;BME280;13829;48.990;8.346;2023-03-21T09:19:46;100593.47;;;14.74;63.54
26112;BME280;13829;48.990;8.346;2023-03-21T09:22:16;100592.53;;;14.81;63.09
26112;BME280;13829;48.990;8.346;2023-03-21T09:24:48;100589.94;;;14.74;65.05
26112;BME280;13829;48.990;8.346;2023-03-21T09:27:16;100591.78;;;14.65;64.12
26112;BME280;13829;48.990;8.346;2023-03-21T09:29:47;100596.09;;;14.74;63.72
26112;BME280;13829;48.990;8.346;2023-03-21T09:32:15;100594.16;;;14.95;63.73
26112;BME280;13829;48.990;8.346;2023-03-21T09:34:43;100596.69;;;15.06;60.88
26112;BME280;13829;48.990;8.346;2023-03-21T09:37:10;100599.38;;;15.04;62.99
26112;BME280;13829;48.990;8.346;2023-03-21T09:39:40;100597.59;;;15.06;64.23
26112;BME280;13829;48.990;8.346;2023-03-21T09:42:22;100605.53;;;15.06;61.62
26112;BME280;13829;48.990;8.346;2023-03-21T09:45:06;100599.44;;;14.96;61.67
26112;BME280;13829;48.990;8.346;2023-03-21T09:47:41;100601.88;;;15.16;62.16
26112;BME280;13829;48.990;8.346;2023-03-21T09:50:21;100602.88;;;15.06;61.88
26112;BME280;13829;48.990;8.346;2023-03-21T09:52:57;100594.88;;;15.11;61.66
26112;BME280;13829;48.990;8.346;2023-03-21T09:55:29;100603.59;;;15.21;61.80
26112;BME280;13829;48.990;8.346;2023-03-21T09:58:06;100592.13;;;15.19;63.10
26112;BME280;13829;48.990;8.346;2023-03-21T10:00:49;100595.59;;;15.27;63.79
26112;BME280;13829;48.990;8.346;2023-03-21T10:03:24;100600.03;;;15.23;61.17
26112;BME280;13829;48.990;8.346;2023-03-21T10:05:55;100607.13;;;15.21;60.98
26112;BME280;13829;48.990;8.346;2023-03-21T10:08:29;100596.00;;;14.90;60.86
26112;BME280;13829;48.990;8.346;2023-03-21T10:11:05;100602.88;;;15.06;62.39
26112;BME280;13829;48.990;8.346;2023-03-21T10:13:43;100608.13;;;15.11;61.64
26112;BME280;13829;48.990;8.346;2023-03-21T10:16:16;100597.53;;;15.09;62.45
26112;BME280;13829;48.990;8.346;2023-03-21T10:18:46;100598.41;;;15.11;62.71
26112;BME280;13829;48.990;8.346;2023-03-21T10:21:21;100589.47;;;15.19;62.52
26112;BME280;13829;48.990;8.346;2023-03-21T10:23:51;100581.78;;;14.97;63.40
26112;BME280;13829;48.990;8.346;2023-03-21T10:26:24;100576.53;;;14.91;60.48
26112;BME280;13829;48.990;8.346;2023-03-21T10:28:55;100579.09;;;15.02;61.53
26112;BME280;13829;48.990;8.346;2023-03-21T10:31:27;100579.09;;;15.00;61.59
26112;BME280;13829;48.990;8.346;2023-03-21T10:34:01;100580.66;;;15.18;60.57
26112;BME280;13829;48.990;8.346;2023-03-21T10:36:31;100570.06;;;15.18;59.96
26112;BME280;13829;48.990;8.346;2023-03-21T10:39:02;100558.56;;;15.21;62.74
26112;BME280;13829;48.990;8.346;2023-03-21T10:41:32;100560.25;;;15.28;61.19
26112;BME280;13829;48.990;8.346;2023-03-21T10:44:08;100560.25;;;15.28;59.89
26112;BME280;13829;48.990;8.346;2023-03-21T10:46:36;100555.78;;;15.33;60.54
26112;BME280;13829;48.990;8.346;2023-03-21T10:49:07;100552.31;;;15.25;60.50
26112;BME280;13829;48.990;8.346;2023-03-21T10:51:37;100553.06;;;15.36;61.88
26112;BME280;13829;48.990;8.346;2023-03-21T10:54:11;100540.63;;;15.44;61.98
26112;BME280;13829;48.990;8.346;2023-03-21T10:56:51;100549.66;;;15.25;63.23
26112;BME280;13829;48.990;8.346;2023-03-21T10:59:22;100554.75;;;15.43;61.77
26112;BME280;13829;48.990;8.346;2023-03-21T11:01:52;100554.59;;;15.56;61.22
26112;BME280;13829;48.990;8.346;2023-03-21T11:04:25;100549.09;;;15.71;62.19
26112;BME280;13829;48.990;8.346;2023-03-21T11:06:55;100549.09;;;15.71;59.49
26112;BME280;13829;48.990;8.346;2023-03-21T11:09:25;100549.84;;;15.82;58.21
26112;BME280;13829;48.990;8.346;2023-03-21T11:12:02;100531.81;;;16.05;58.54
26112;BME280;13829;48.990;8.346;2023-03-21T11:14:38;100539.81;;;16.03;58.19
26112;BME280;13829;48.990;8.346;2023-03-21T11:17:26;100543.06;;;16.21;58.97
26112;BME280;13829;48.990;8.346;2023-03-21T11:19:57;100539.63;;;16.16;58.42
26112;BME280;13829;48.990;8.346;2023-03-21T11:22:36;100521.81;;;16.22;58.31
26112;BME280;13829;48.990;8.346;2023-03-21T11:25:08;100528.28;;;16.59;57.43
26112;BME280;13829;48.990;8.346;2023-03-21T11:27:49;100520.97;;;16.70;55.66
26112;BME280;13829;48.990;8.346;2023-03-21T11:30:22;100513.34;;;16.53;55.30
26112;BME280;13829;48.990;8.346;2023-03-21T11:32:54;100523.28;;;16.40;55.58
26112;BME280;13829;48.990;8.346;2023-03-21T11:35:25;100516.94;;;16.49;56.74
26112;BME280;13829;48.990;8.346;2023-03-21T11:37:55;100510.00;;;16.40;56.10
26112;BME280;13829;48.990;8.346;2023-03-21T11:40:25;100520.66;;;16.39;57.30
26112;BME280;13829;48.990;8.346;2023-03-21T11:42:56;100509.34;;;16.29;58.02
26112;BME280;13829;48.990;8.346;2023-03-21T11:45:27;100505.53;;;16.45;57.08
26112;BME280;13829;48.990;8.346;2023-03-21T11:47:57;100501.94;;;16.46;59.30
26112;BME280;13829;48.990;8.346;2023-03-21T11:50:32;100494.66;;;16.58;56.09
26112;BME280;13829;48.990;8.346;2023-03-21T11:53:17;100486.41;;;16.73;58.05
26112;BME280;13829;48.990;8.346;2023-03-21T11:56:03;100488.94;;;16.79;56.00
26112;BME280;13829;48.990;8.346;2023-03-21T11:58:50;100487.22;;;16.78;55.02
26112;BME280;13829;48.990;8.346;2023-03-21T12:01:30;100482.91;;;16.71;54.41
26112;BME280;13829;48.990;8.346;2023-03-21T12:04:19;100478.47;;;16.73;53.74
26112;BME280;13829;48.990;8.346;2023-03-21T12:06:52;100470.66;;;16.64;54.74
26112;BME280;13829;48.990;8.346;2023-03-21T12:09:36;100462.38;;;16.81;54.74
26112;BME280;13829;48.990;8.346;2023-03-21T12:12:17;100465.28;;;17.12;54.20
26112;BME280;13829;48.990;8.346;2023-03-21T12:14:58;100457.97;;;17.22;55.07
26112;BME280;13829;48.990;8.346;2023-03-21T12:17:39;100457.75;;;17.33;54.57
26112;BME280;13829;48.990;8.346;2023-03-21T12:20:22;100447.00;;;17.39;52.90
26112;BME280;13829;48.990;8.346;2023-03-21T12:23:14;100442.50;;;17.41;52.60
26112;BME280;13829;48.990;8.346;2023-03-21T12:25:53;100446.56;;;17.58;52.20
26112;BME280;13829;48.990;8.346;2023-03-21T12:28:34;100440.03;;;17.71;51.28
26112;BME280;13829;48.990;8.346;2023-03-21T12:31:15;100439.06;;;17.75;51.77
26112;BME280;13829;48.990;8.346;2023-03-21T12:34:04;100429.50;;;18.04;52.11
26112;BME280;13829;48.990;8.346;2023-03-21T12:36:49;100429.41;;;18.07;51.70
26112;BME280;13829;48.990;8.346;2023-03-21T12:39:27;100425.78;;;18.12;50.96
26112;BME280;13829;48.990;8.346;2023-03-21T12:42:16;100417.09;;;18.03;49.45
26112;BME280;13829;48.990;8.346;2023-03-21T12:44:52;100413.44;;;18.07;51.33
26112;BME280;13829;48.990;8.346;2023-03-21T12:47:25;100409.16;;;18.02;51.81
26112;BME280;13829;48.990;8.346;2023-03-21T12:49:59;100411.53;;;18.14;49.97
26112;BME280;13829;48.990;8.346;2023-03-21T12:52:32;100410.63;;;18.14;49.50
26112;BME280;13829;48.990;8.346;2023-03-21T12:55:04;100407.00;;;18.18;48.95
26112;BME280;13829;48.990;8.346;2023-03-21T12:57:37;100404.41;;;18.15;50.46
26112;BME280;13829;48.990;8.346;2023-03-21T13:00:13;100404.72;;;18.02;47.73
26112;BME280;13829;48.990;8.346;2023-03-21T13:02:49;100394.28;;;17.93;48.42
26112;BME280;13829;48.990;8.346;2023-03-21T13:05:21;100397.19;;;17.82;47.11
26112;BME280;13829;48.990;8.346;2023-03-21T13:07:58;100390.38;;;17.72;48.50
26112;BME280;13829;48.990;8.346;2023-03-21T13:10:26;100394.44;;;17.87;49.29
26112;BME280;13829;48.990;8.346;2023-03-21T13:13:15;100384.63;;;17.89;48.45
26112;BME280;13829;48.990;8.346;2023-03-21T13:15:58;100388.84;;;17.99;49.56